sensor_id;sensor_type;location;lat;lon;timestamp;pressure;altitude;pressure_sealevel;temperature;humidity
62420;BME280;48460;51.616;5.426;2022-10-18T00:00:35;102533.19;;;14.20;100.00
62420;BME280;48460;51.616;5.426;2022-10-18T00:03:01;102534.22;;;14.16;100.00
62420;BME280;48460;51.616;5.426;2022-10-18T00:05:30;102532.31;;;14.19;100.00
62420;BME280;48460;51.616;5.426;2022-10-18T00:07:58;102527.66;;;14.26;100.00
62420;BME280;48460;51.616;5.426;2022-10-18T00:10:30;102517.34;;;14.18;100.00
62420;BME280;48460;51.616;5.426;2022-10-18T00:13:02;102516.63;;;14.14;100.00
62420;BME280;48460;51.616;5.426;2022-10-18T00:15:28;102521.19;;;14.11;100.00
62420;BME280;48460;51.616;5.426;2022-10-18T00:18:02;102510.59;;;14.11;100.00
62420;BME280;48460;51.616;5.426;2022-10-18T00:20:57;102519.28;;;14.14;100.00
62420;BME280;48460;51.616;5.426;2022-10-18T00:23:34;102511.53;;;14.10;100.00
62420;BME280;48460;51.616;5.426;2022-10-18T00:26:09;102518.34;;;14.16;100.00
62420;BME280;48460;51.616;5.426;2022-10-18T00:28:51;102509.06;;;14.05;100.00
62420;BME280;48460;51.616;5.426;2022-10-18T00:31:31;102522.97;;;14.10;100.00
62420;BME280;48460;51.616;5.426;2022-10-18T00:34:13;102520.44;;;14.07;100.00
62420;BME280;48460;51.616;5.426;2022-10-18T00:36:44;102522.53;;;13.99;100.00
62420;BME280;48460;51.616;5.426;2022-10-18T00:39:17;102513.75;;;13.99;100.00
62420;BME280;48460;51.616;5.426;2022-10-18T00:41:46;102509.31;;;13.99;100.00
62420;BME280;48460;51.616;5.426;2022-10-18T00:47:13;102514.53;;;14.01;100.00
62420;BME280;48460;51.616;5.426;2022-10-18T00:49:47;102516.44;;;13.97;100.00
62420;BME280;48460;51.616;5.426;2022-10-18T00:52:48;102523.13;;;14.06;100.00
62420;BME280;48460;51.616;5.426;2022-10-18T00:55:17;102513.63;;;14.02;100.00
62420;BME280;48460;51.616;5.426;2022-10-18T00:57:55;102532.88;;;14.05;100.00
62420;BME280;48460;51.616;5.426;2022-10-18T01:00:21;102534.78;;;14.02;100.00
62420;BME280;48460;51.616;5.426;2022-10-18T01:02:51;102541.16;;;13.96;100.00
62420;BME280;48460;51.616;5.426;2022-10-18T01:05:19;102538.66;;;13.93;100.00
62420;BME280;48460;51.616;5.426;2022-10-18T01:16:55;102530.31;;;13.80;100.00
62420;BME280;48460;51.616;5.426;2022-10-18T01:22:36;102541.34;;;13.91;100.00
62420;BME280;48460;51.616;5.426;2022-10-18T01:31:19;102543.94;;;13.93;100.00
62420;BME280;48460;51.616;5.426;2022-10-18T01:34:03;102533.41;;;13.91;100.00
62420;BME280;48460;51.616;5.426;2022-10-18T01:36:39;102537.03;;;13.89;100.00
62420;BME280;48460;51.616;5.426;2022-10-18T01:39:12;102533.59;;;13.87;100.00
62420;BME280;48460;51.616;5.426;2022-10-18T02:11:55;102540.72;;;13.61;100.00
62420;BME280;48460;51.616;5.426;2022-10-18T02:14:31;102550.41;;;13.62;100.00
62420;BME280;48460;51.616;5.426;2022-10-18T02:17:11;102544.44;;;13.56;100.00
62420;BME280;48460;51.616;5.426;2022-10-18T02:20:13;102534.94;;;13.52;100.00
62420;BME280;48460;51.616;5.426;2022-10-18T02:22:43;102529.88;;;13.45;100.00
62420;BME280;48460;51.616;5.426;2022-10-18T02:25:19;102540.44;;;13.45;100.00
62420;BME280;48460;51.616;5.426;2022-10-18T02:41:29;102537.72;;;13.47;100.00
62420;BME280;48460;51.616;5.426;2022-10-18T02:44:05;102535.16;;;13.45;100.00
62420;BME280;48460;51.616;5.426;2022-10-18T02:46:33;102553.59;;;13.47;100.00
62420;BME280;48460;51.616;5.426;2022-10-18T02:49:07;102548.28;;;13.47;100.00
62420;BME280;48460;51.616;5.426;2022-10-18T02:51:36;102548.72;;;13.60;100.00
62420;BME280;48460;51.616;5.426;2022-10-18T02:54:08;102537.72;;;13.47;100.00
62420;BME280;48460;51.616;5.426;2022-10-18T02:57:00;102551.59;;;13.54;100.00
62420;BME280;48460;51.616;5.426;2022-10-18T03:03:48;102545.63;;;13.49;100.00
62420;BME280;48460;51.616;5.426;2022-10-18T03:10:25;102558.72;;;13.52;100.00
62420;BME280;48460;51.616;5.426;2022-10-18T03:29:36;102551.28;;;13.38;100.00
62420;BME280;48460;51.616;5.426;2022-10-18T03:32:03;102554.63;;;13.43;100.00
62420;BME280;48460;51.616;5.426;2022-10-18T03:34:33;102554.69;;;13.41;100.00
62420;BME280;48460;51.616;5.426;2022-10-18T03:37:07;102555.47;;;13.43;100.00
62420;BME280;48460;51.616;5.426;2022-10-18T03:39:35;102565.91;;;13.48;100.00
62420;BME280;48460;51.616;5.426;2022-10-18T03:42:39;102557.28;;;13.43;100.00
62420;BME280;48460;51.616;5.426;2022-10-18T03:56:07;102549.22;;;13.46;100.00
62420;BME280;48460;51.616;5.426;2022-10-18T04:08:43;102542.50;;;13.37;100.00
62420;BME280;48460;51.616;5.426;2022-10-18T04:11:24;102530.31;;;13.33;100.00
62420;BME280;48460;51.616;5.426;2022-10-18T04:27:33;102564.81;;;13.29;100.00
62420;BME280;48460;51.616;5.426;2022-10-18T04:30:01;102559.72;;;13.22;100.00
62420;BME280;48460;51.616;5.426;2022-10-18T04:32:39;102558.34;;;13.12;100.00
62420;BME280;48460;51.616;5.426;2022-10-18T04:35:05;102562.94;;;13.06;100.00
62420;BME280;48460;51.616;5.426;2022-10-18T04:37:34;102561.31;;;13.03;100.00
62420;BME280;48460;51.616;5.426;2022-10-18T04:40:11;102547.59;;;12.92;100.00
62420;BME280;48460;51.616;5.426;2022-10-18T04:42:37;102569.63;;;12.91;100.00
62420;BME280;48460;51.616;5.426;2022-10-18T04:45:05;102561.03;;;12.86;100.00
62420;BME280;48460;51.616;5.426;2022-10-18T04:47:34;102561.91;;;12.85;100.00
62420;BME280;48460;51.616;5.426;2022-10-18T04:50:03;102565.34;;;12.88;100.00
62420;BME280;48460;51.616;5.426;2022-10-18T04:52:53;102558.09;;;12.93;100.00
62420;BME280;48460;51.616;5.426;2022-10-18T04:58:23;102564.16;;;12.97;100.00
62420;BME280;48460;51.616;5.426;2022-10-18T05:01:03;102562.41;;;12.96;100.00
62420;BME280;48460;51.616;5.426;2022-10-18T05:03:41;102561.78;;;12.89;100.00
62420;BME280;48460;51.616;5.426;2022-10-18T05:09:38;102569.91;;;12.83;100.00
62420;BME280;48460;51.616;5.426;2022-10-18T05:12:10;102570.00;;;12.80;100.00
62420;BME280;48460;51.616;5.426;2022-10-18T05:15:09;102568.22;;;12.81;100.00
62420;BME280;48460;51.616;5.426;2022-10-18T05:17:58;102583.72;;;12.91;100.00
62420;BME280;48460;51.616;5.426;2022-10-18T05:24:40;102575.44;;;12.75;100.00
62420;BME280;48460;51.616;5.426;2022-10-18T05:27:06;102587.63;;;12.80;100.00
62420;BME280;48460;51.616;5.426;2022-10-18T05:30:04;102589.34;;;12.81;100.00
62420;BME280;48460;51.616;5.426;2022-10-18T05:33:02;102576.44;;;12.71;100.00
62420;BME280;48460;51.616;5.426;2022-10-18T05:35:33;102575.63;;;12.69;100.00
62420;BME280;48460;51.616;5.426;2022-10-18T05:41:23;102595.13;;;12.65;100.00
62420;BME280;48460;51.616;5.426;2022-10-18T05:43:54;102595.97;;;12.67;100.00
62420;BME280;48460;51.616;5.426;2022-10-18T05:46:20;102594.94;;;12.71;100.00
62420;BME280;48460;51.616;5.426;2022-10-18T05:49:06;102586.28;;;12.66;100.00
62420;BME280;48460;51.616;5.426;2022-10-18T05:51:34;102584.50;;;12.67;100.00
62420;BME280;48460;51.616;5.426;2022-10-18T05:54:18;102593.31;;;12.67;100.00
62420;BME280;48460;51.616;5.426;2022-10-18T06:07:14;102592.69;;;12.59;100.00
62420;BME280;48460;51.616;5.426;2022-10-18T06:09:42;102600.50;;;12.62;100.00
62420;BME280;48460;51.616;5.426;2022-10-18T06:12:11;102603.16;;;12.62;100.00
62420;BME280;48460;51.616;5.426;2022-10-18T06:53:54;102661.59;;;12.50;100.00
62420;BME280;48460;51.616;5.426;2022-10-18T07:31:31;102693.47;;;13.00;100.00
62420;BME280;48460;51.616;5.426;2022-10-18T07:37:28;102726.56;;;13.12;100.00
62420;BME280;48460;51.616;5.426;2022-10-18T08:03:05;102764.59;;;13.34;100.00
62420;BME280;48460;51.616;5.426;2022-10-18T08:27:47;102783.31;;;13.80;100.00
62420;BME280;48460;51.616;5.426;2022-10-18T08:57:00;102788.50;;;15.03;100.00
62420;BME280;48460;51.616;5.426;2022-10-18T09:16:00;102802.84;;;14.98;100.00
62420;BME280;48460;51.616;5.426;2022-10-18T09:21:22;102800.16;;;14.99;100.00
62420;BME280;48460;51.616;5.426;2022-10-18T09:24:07;102793.06;;;15.00;100.00
62420;BME280;48460;51.616;5.426;2022-10-18T09:26:44;102797.53;;;14.98;100.00
62420;BME280;48460;51.616;5.426;2022-10-18T09:34:42;102797.88;;;15.12;100.00
62420;BME280;48460;51.616;5.426;2022-10-18T09:37:17;102799.66;;;15.12;100.00
62420;BME280;48460;51.616;5.426;2022-10-18T09:39:44;102807.47;;;15.15;100.00
62420;BME280;48460;51.616;5.426;2022-10-18T09:42:16;102799.09;;;15.03;100.00
62420;BME280;48460;51.616;5.426;2022-10-18T09:45:04;102807.03;;;15.03;100.00
62420;BME280;48460;51.616;5.426;2022-10-18T09:47:36;102799.38;;;14.96;100.00
62420;BME280;48460;51.616;5.426;2022-10-18T09:53:17;102801.63;;;15.07;100.00
62420;BME280;48460;51.616;5.426;2022-10-18T09:56:01;102799.09;;;15.03;100.00
62420;BME280;48460;51.616;5.426;2022-10-18T09:58:42;102811.13;;;15.12;100.00
62420;BME280;48460;51.616;5.426;2022-10-18T10:01:15;102801.38;;;15.13;100.00
62420;BME280;48460;51.616;5.426;2022-10-18T10:04:02;102796.81;;;15.16;100.00
62420;BME280;48460;51.616;5.426;2022-10-18T10:06:31;102796.56;;;15.22;100.00
62420;BME280;48460;51.616;5.426;2022-10-18T10:09:16;102804.94;;;15.34;100.00
62420;BME280;48460;51.616;5.426;2022-10-18T10:11:47;102805.56;;;15.40;100.00
62420;BME280;48460;51.616;5.426;2022-10-18T10:14:18;102809.94;;;15.41;100.00
62420;BME280;48460;51.616;5.426;2022-10-18T10:19:39;102818.81;;;15.62;100.00
62420;BME280;48460;51.616;5.426;2022-10-18T10:22:26;102819.44;;;15.69;100.00
62420;BME280;48460;51.616;5.426;2022-10-18T10:24:53;102817.94;;;15.84;100.00
62420;BME280;48460;51.616;5.426;2022-10-18T10:27:43;102836.13;;;16.34;100.00
62420;BME280;48460;51.616;5.426;2022-10-18T10:30:33;102823.81;;;17.27;100.00
62420;BME280;48460;51.616;5.426;2022-10-18T10:32:59;102811.34;;;18.50;100.00
62420;BME280;48460;51.616;5.426;2022-10-18T10:38:03;102826.34;;;20.38;91.65
62420;BME280;48460;51.616;5.426;2022-10-18T10:40:32;102827.22;;;21.08;84.66
62420;BME280;48460;51.616;5.426;2022-10-18T10:46:02;102842.78;;;22.36;85.10
62420;BME280;48460;51.616;5.426;2022-10-18T10:51:17;102835.25;;;23.16;74.56
62420;BME280;48460;51.616;5.426;2022-10-18T10:54:21;102833.69;;;23.73;74.22
62420;BME280;48460;51.616;5.426;2022-10-18T10:57:02;102841.63;;;24.09;65.40
62420;BME280;48460;51.616;5.426;2022-10-18T11:05:41;102832.91;;;25.30;63.55
62420;BME280;48460;51.616;5.426;2022-10-18T11:08:08;102835.53;;;25.52;54.29
62420;BME280;48460;51.616;5.426;2022-10-18T11:10:52;102844.63;;;25.61;59.69
62420;BME280;48460;51.616;5.426;2022-10-18T11:13:31;102835.81;;;25.70;52.48
62420;BME280;48460;51.616;5.426;2022-10-18T11:16:04;102844.06;;;25.78;54.07
62420;BME280;48460;51.616;5.426;2022-10-18T11:18:47;102846.88;;;25.88;52.22
62420;BME280;48460;51.616;5.426;2022-10-18T11:21:26;102841.25;;;26.22;53.57
62420;BME280;48460;51.616;5.426;2022-10-18T11:24:00;102839.53;;;26.72;51.90
62420;BME280;48460;51.616;5.426;2022-10-18T11:26:57;102833.19;;;27.02;50.33
62420;BME280;48460;51.616;5.426;2022-10-18T11:29:28;102837.53;;;27.44;49.60
62420;BME280;48460;51.616;5.426;2022-10-18T11:32:25;102837.50;;;27.92;51.78
62420;BME280;48460;51.616;5.426;2022-10-18T11:35:12;102837.41;;;27.84;46.47
62420;BME280;48460;51.616;5.426;2022-10-18T11:38:14;102829.69;;;27.99;50.18
62420;BME280;48460;51.616;5.426;2022-10-18T11:46:17;102835.09;;;28.36;45.01
62420;BME280;48460;51.616;5.426;2022-10-18T11:51:36;102830.72;;;28.26;46.01
62420;BME280;48460;51.616;5.426;2022-10-18T11:56:55;102826.03;;;28.28;40.19
62420;BME280;48460;51.616;5.426;2022-10-18T12:02:39;102825.59;;;28.23;42.56
62420;BME280;48460;51.616;5.426;2022-10-18T12:05:11;102823.34;;;28.65;41.53
62420;BME280;48460;51.616;5.426;2022-10-18T12:07:55;102813.34;;;29.11;42.98
62420;BME280;48460;51.616;5.426;2022-10-18T12:10:23;102814.78;;;29.59;39.29
62420;BME280;48460;51.616;5.426;2022-10-18T12:12:55;102808.31;;;29.52;37.44
62420;BME280;48460;51.616;5.426;2022-10-18T12:15:30;102806.88;;;29.04;38.19
62420;BME280;48460;51.616;5.426;2022-10-18T12:18:12;102810.88;;;29.18;39.74
62420;BME280;48460;51.616;5.426;2022-10-18T12:20:57;102810.22;;;27.37;36.35
62420;BME280;48460;51.616;5.426;2022-10-18T12:23:44;102816.59;;;27.94;43.11
62420;BME280;48460;51.616;5.426;2022-10-18T12:26:14;102813.47;;;28.92;38.95
62420;BME280;48460;51.616;5.426;2022-10-18T12:31:36;102805.63;;;29.34;39.33
62420;BME280;48460;51.616;5.426;2022-10-18T12:34:27;102799.75;;;28.75;35.81
62420;BME280;48460;51.616;5.426;2022-10-18T12:39:55;102800.13;;;27.20;38.27
62420;BME280;48460;51.616;5.426;2022-10-18T12:42:26;102789.56;;;27.85;40.14
62420;BME280;48460;51.616;5.426;2022-10-18T12:45:29;102795.63;;;28.44;41.91
62420;BME280;48460;51.616;5.426;2022-10-18T12:48:05;102787.34;;;28.08;38.06
62420;BME280;48460;51.616;5.426;2022-10-18T12:50:37;102792.97;;;27.97;39.35
62420;BME280;48460;51.616;5.426;2022-10-18T12:53:19;102784.47;;;28.56;40.70
62420;BME280;48460;51.616;5.426;2022-10-18T12:55:52;102778.03;;;29.21;38.89
62420;BME280;48460;51.616;5.426;2022-10-18T13:22:09;102784.00;;;28.61;38.96
62420;BME280;48460;51.616;5.426;2022-10-18T13:24:57;102775.69;;;28.90;39.07
62420;BME280;48460;51.616;5.426;2022-10-18T13:27:52;102768.09;;;28.76;36.27
62420;BME280;48460;51.616;5.426;2022-10-18T13:33:36;102778.25;;;28.46;39.85
62420;BME280;48460;51.616;5.426;2022-10-18T13:38:44;102760.84;;;28.49;36.95
62420;BME280;48460;51.616;5.426;2022-10-18T13:41:14;102767.13;;;28.12;34.45
62420;BME280;48460;51.616;5.426;2022-10-18T13:43:56;102773.53;;;28.48;37.75
62420;BME280;48460;51.616;5.426;2022-10-18T13:49:35;102773.03;;;28.35;38.25
62420;BME280;48460;51.616;5.426;2022-10-18T13:52:23;102774.34;;;27.64;37.66
62420;BME280;48460;51.616;5.426;2022-10-18T14:01:05;102771.38;;;27.48;40.18
62420;BME280;48460;51.616;5.426;2022-10-18T14:06:17;102768.66;;;27.67;36.71
62420;BME280;48460;51.616;5.426;2022-10-18T14:09:18;102770.78;;;26.96;39.69
62420;BME280;48460;51.616;5.426;2022-10-18T14:14:19;102774.97;;;25.35;38.05
62420;BME280;48460;51.616;5.426;2022-10-18T14:17:16;102780.28;;;25.26;42.57
62420;BME280;48460;51.616;5.426;2022-10-18T14:22:33;102778.75;;;25.00;42.23
62420;BME280;48460;51.616;5.426;2022-10-18T14:25:15;102776.81;;;24.91;40.25
62420;BME280;48460;51.616;5.426;2022-10-18T14:27:44;102772.50;;;25.00;40.55
62420;BME280;48460;51.616;5.426;2022-10-18T14:30:19;102769.38;;;25.27;39.93
62420;BME280;48460;51.616;5.426;2022-10-18T14:32:51;102769.06;;;24.98;39.48
62420;BME280;48460;51.616;5.426;2022-10-18T14:35:21;102771.81;;;25.51;39.04
62420;BME280;48460;51.616;5.426;2022-10-18T14:37:49;102780.59;;;25.64;39.66
62420;BME280;48460;51.616;5.426;2022-10-18T14:40:26;102776.28;;;26.34;39.06
62420;BME280;48460;51.616;5.426;2022-10-18T14:42:52;102765.97;;;26.09;37.08
62420;BME280;48460;51.616;5.426;2022-10-18T14:45:21;102758.44;;;26.43;38.62
62420;BME280;48460;51.616;5.426;2022-10-18T14:47:50;102769.91;;;26.76;37.62
62420;BME280;48460;51.616;5.426;2022-10-18T14:50:25;102766.25;;;27.06;37.03
62420;BME280;48460;51.616;5.426;2022-10-18T14:52:52;102762.91;;;26.64;35.71
62420;BME280;48460;51.616;5.426;2022-10-18T14:55:28;102765.09;;;26.89;37.25
62420;BME280;48460;51.616;5.426;2022-10-18T14:58:00;102761.13;;;27.03;38.43
62420;BME280;48460;51.616;5.426;2022-10-18T15:00:37;102758.00;;;27.08;38.83
62420;BME280;48460;51.616;5.426;2022-10-18T15:03:15;102762.13;;;26.92;36.44
62420;BME280;48460;51.616;5.426;2022-10-18T15:05:54;102772.06;;;26.92;37.81
62420;BME280;48460;51.616;5.426;2022-10-18T15:08:22;102764.22;;;26.79;37.44
62420;BME280;48460;51.616;5.426;2022-10-18T15:10:48;102768.75;;;26.69;37.43
62420;BME280;48460;51.616;5.426;2022-10-18T15:13:15;102759.63;;;26.20;36.59
62420;BME280;48460;51.616;5.426;2022-10-18T15:15:42;102767.25;;;26.14;40.38
62420;BME280;48460;51.616;5.426;2022-10-18T15:18:28;102778.88;;;25.84;40.27
62420;BME280;48460;51.616;5.426;2022-10-18T15:21:20;102765.94;;;25.25;42.67
62420;BME280;48460;51.616;5.426;2022-10-18T15:23:47;102766.59;;;24.63;42.40
62420;BME280;48460;51.616;5.426;2022-10-18T15:26:19;102768.47;;;23.71;43.44
62420;BME280;48460;51.616;5.426;2022-10-18T15:28:49;102769.16;;;23.02;44.05
62420;BME280;48460;51.616;5.426;2022-10-18T15:31:41;102758.44;;;22.65;47.08
62420;BME280;48460;51.616;5.426;2022-10-18T15:36:39;102765.13;;;21.57;49.24
62420;BME280;48460;51.616;5.426;2022-10-18T15:39:06;102774.41;;;21.12;50.03
62420;BME280;48460;51.616;5.426;2022-10-18T15:44:27;102765.03;;;20.78;54.92
62420;BME280;48460;51.616;5.426;2022-10-18T15:47:17;102770.00;;;20.55;54.99
62420;BME280;48460;51.616;5.426;2022-10-18T15:49:52;102770.78;;;20.14;54.59
62420;BME280;48460;51.616;5.426;2022-10-18T15:54:45;102772.47;;;19.72;58.53
62420;BME280;48460;51.616;5.426;2022-10-18T15:57:11;102777.34;;;19.64;58.65
62420;BME280;48460;51.616;5.426;2022-10-18T15:59:48;102756.91;;;19.49;57.95
62420;BME280;48460;51.616;5.426;2022-10-18T16:02:16;102765.91;;;19.32;58.43
62420;BME280;48460;51.616;5.426;2022-10-18T16:04:41;102757.94;;;19.16;59.57
62420;BME280;48460;51.616;5.426;2022-10-18T16:07:09;102761.72;;;19.12;62.32
62420;BME280;48460;51.616;5.426;2022-10-18T16:09:35;102769.56;;;18.99;62.72
62420;BME280;48460;51.616;5.426;2022-10-18T16:12:00;102768.88;;;18.96;63.22
62420;BME280;48460;51.616;5.426;2022-10-18T16:14:26;102763.53;;;18.80;64.77
62420;BME280;48460;51.616;5.426;2022-10-18T16:16:54;102774.00;;;18.67;64.84
62420;BME280;48460;51.616;5.426;2022-10-18T16:19:19;102775.00;;;18.49;64.60
62420;BME280;48460;51.616;5.426;2022-10-18T16:21:47;102778.00;;;18.27;63.47
62420;BME280;48460;51.616;5.426;2022-10-18T16:24:12;102782.50;;;18.09;66.14
62420;BME280;48460;51.616;5.426;2022-10-18T16:26:38;102777.56;;;18.01;66.20
62420;BME280;48460;51.616;5.426;2022-10-18T16:29:04;102770.81;;;17.76;67.78
62420;BME280;48460;51.616;5.426;2022-10-18T16:31:33;102777.81;;;17.79;65.95
62420;BME280;48460;51.616;5.426;2022-10-18T16:33:59;102775.19;;;17.60;68.84
62420;BME280;48460;51.616;5.426;2022-10-18T16:36:36;102787.25;;;17.50;67.61
62420;BME280;48460;51.616;5.426;2022-10-18T16:39:04;102776.78;;;17.28;67.64
62420;BME280;48460;51.616;5.426;2022-10-18T16:41:32;102788.78;;;17.19;68.54
62420;BME280;48460;51.616;5.426;2022-10-18T16:43:58;102792.09;;;17.05;70.35
62420;BME280;48460;51.616;5.426;2022-10-18T16:46:27;102792.03;;;16.88;70.64
62420;BME280;48460;51.616;5.426;2022-10-18T16:48:56;102794.28;;;16.78;70.85
62420;BME280;48460;51.616;5.426;2022-10-18T16:51:22;102809.81;;;16.67;71.90
62420;BME280;48460;51.616;5.426;2022-10-18T16:53:48;102815.41;;;16.61;73.68
62420;BME280;48460;51.616;5.426;2022-10-18T16:56:20;102798.72;;;16.38;72.47
62420;BME280;48460;51.616;5.426;2022-10-18T16:58:48;102808.09;;;16.27;73.57
62420;BME280;48460;51.616;5.426;2022-10-18T17:01:16;102815.41;;;16.22;75.30
62420;BME280;48460;51.616;5.426;2022-10-18T17:03:42;102809.13;;;16.04;75.11
62420;BME280;48460;51.616;5.426;2022-10-18T17:06:24;102819.88;;;16.01;76.40
62420;BME280;48460;51.616;5.426;2022-10-18T17:08:53;102823.66;;;15.95;77.65
62420;BME280;48460;51.616;5.426;2022-10-18T17:11:20;102825.91;;;15.84;77.81
62420;BME280;48460;51.616;5.426;2022-10-18T17:13:48;102813.41;;;15.64;75.55
62420;BME280;48460;51.616;5.426;2022-10-18T17:16:26;102825.97;;;15.60;77.68
62420;BME280;48460;51.616;5.426;2022-10-18T17:18:53;102816.91;;;15.44;78.61
62420;BME280;48460;51.616;5.426;2022-10-18T17:21:19;102833.28;;;15.32;79.03
62420;BME280;48460;51.616;5.426;2022-10-18T17:23:45;102826.41;;;15.27;79.86
62420;BME280;48460;51.616;5.426;2022-10-18T17:26:16;102824.41;;;15.11;80.29
62420;BME280;48460;51.616;5.426;2022-10-18T17:28:44;102825.09;;;15.16;80.99
62420;BME280;48460;51.616;5.426;2022-10-18T17:31:13;102828.25;;;15.03;80.60
62420;BME280;48460;51.616;5.426;2022-10-18T17:33:45;102829.41;;;14.96;81.88
62420;BME280;48460;51.616;5.426;2022-10-18T17:36:11;102834.13;;;14.88;82.46
62420;BME280;48460;51.616;5.426;2022-10-18T17:38:55;102848.28;;;14.87;82.82
62420;BME280;48460;51.616;5.426;2022-10-18T17:41:44;102844.78;;;14.63;83.02
62420;BME280;48460;51.616;5.426;2022-10-18T17:44:34;102852.81;;;14.60;84.05
62420;BME280;48460;51.616;5.426;2022-10-18T17:50:38;102859.72;;;14.39;84.06
62420;BME280;48460;51.616;5.426;2022-10-18T17:53:41;102854.72;;;14.31;84.25
62420;BME280;48460;51.616;5.426;2022-10-18T17:56:39;102863.97;;;14.20;86.60
62420;BME280;48460;51.616;5.426;2022-10-18T17:59:23;102860.44;;;14.19;85.79
62420;BME280;48460;51.616;5.426;2022-10-18T18:09:09;102855.22;;;13.64;86.80
62420;BME280;48460;51.616;5.426;2022-10-18T18:11:39;102860.06;;;13.52;87.67
62420;BME280;48460;51.616;5.426;2022-10-18T18:14:18;102859.53;;;13.40;88.62
62420;BME280;48460;51.616;5.426;2022-10-18T18:16:52;102864.19;;;13.32;89.38
62420;BME280;48460;51.616;5.426;2022-10-18T18:19:29;102872.06;;;13.34;90.58
62420;BME280;48460;51.616;5.426;2022-10-18T18:27:09;102865.38;;;13.20;89.43
62420;BME280;48460;51.616;5.426;2022-10-18T18:29:42;102876.94;;;13.18;89.99
62420;BME280;48460;51.616;5.426;2022-10-18T18:32:13;102875.94;;;13.20;90.62
62420;BME280;48460;51.616;5.426;2022-10-18T18:34:53;102869.19;;;13.12;90.23
62420;BME280;48460;51.616;5.426;2022-10-18T18:37:30;102880.91;;;13.03;90.33
62420;BME280;48460;51.616;5.426;2022-10-18T18:40:01;102873.41;;;12.88;91.66
62420;BME280;48460;51.616;5.426;2022-10-18T18:42:32;102876.22;;;12.82;91.83
62420;BME280;48460;51.616;5.426;2022-10-18T18:45:03;102864.22;;;12.71;92.55
62420;BME280;48460;51.616;5.426;2022-10-18T18:47:33;102866.88;;;12.70;92.07
62420;BME280;48460;51.616;5.426;2022-10-18T18:50:09;102858.25;;;12.65;92.83
62420;BME280;48460;51.616;5.426;2022-10-18T18:52:45;102867.06;;;12.64;92.80
62420;BME280;48460;51.616;5.426;2022-10-18T18:55:14;102863.72;;;12.57;93.01
62420;BME280;48460;51.616;5.426;2022-10-18T18:57:49;102856.91;;;12.50;93.53
62420;BME280;48460;51.616;5.426;2022-10-18T19:00:27;102865.94;;;12.41;93.62
62420;BME280;48460;51.616;5.426;2022-10-18T19:05:44;102871.66;;;12.24;93.97
62420;BME280;48460;51.616;5.426;2022-10-18T19:08:39;102869.31;;;12.14;94.44
62420;BME280;48460;51.616;5.426;2022-10-18T19:11:20;102866.03;;;12.04;94.75
62420;BME280;48460;51.616;5.426;2022-10-18T19:13:55;102868.94;;;11.93;94.96
62420;BME280;48460;51.616;5.426;2022-10-18T19:16:35;102864.63;;;11.91;94.92
62420;BME280;48460;51.616;5.426;2022-10-18T19:19:35;102863.19;;;11.76;95.22
62420;BME280;48460;51.616;5.426;2022-10-18T20:08:18;102894.53;;;10.68;100.00
62420;BME280;48460;51.616;5.426;2022-10-18T20:10:56;102884.25;;;10.56;100.00
62420;BME280;48460;51.616;5.426;2022-10-18T20:13:31;102889.69;;;10.45;100.00
62420;BME280;48460;51.616;5.426;2022-10-18T20:16:03;102884.47;;;10.42;100.00
62420;BME280;48460;51.616;5.426;2022-10-18T20:18:32;102893.41;;;10.34;100.00
62420;BME280;48460;51.616;5.426;2022-10-18T20:20:58;102891.69;;;10.33;100.00
62420;BME280;48460;51.616;5.426;2022-10-18T20:23:26;102887.41;;;10.27;100.00
62420;BME280;48460;51.616;5.426;2022-10-18T20:26:07;102895.22;;;10.30;100.00
62420;BME280;48460;51.616;5.426;2022-10-18T20:28:33;102883.78;;;10.33;100.00
62420;BME280;48460;51.616;5.426;2022-10-18T20:31:11;102892.44;;;10.38;100.00
62420;BME280;48460;51.616;5.426;2022-10-18T20:33:41;102876.59;;;10.41;100.00
62420;BME280;48460;51.616;5.426;2022-10-18T20:36:08;102884.34;;;10.50;100.00
62420;BME280;48460;51.616;5.426;2022-10-18T20:38:36;102877.44;;;10.44;100.00
62420;BME280;48460;51.616;5.426;2022-10-18T20:41:10;102879.16;;;10.47;100.00
62420;BME280;48460;51.616;5.426;2022-10-18T20:43:41;102873.97;;;10.41;100.00
62420;BME280;48460;51.616;5.426;2022-10-18T20:46:12;102874.88;;;10.40;100.00
62420;BME280;48460;51.616;5.426;2022-10-18T20:48:38;102877.47;;;10.43;100.00
62420;BME280;48460;51.616;5.426;2022-10-18T20:51:08;102871.38;;;10.39;100.00
62420;BME280;48460;51.616;5.426;2022-10-18T20:53:35;102884.41;;;10.47;100.00
62420;BME280;48460;51.616;5.426;2022-10-18T20:56:12;102871.34;;;10.41;100.00
62420;BME280;48460;51.616;5.426;2022-10-18T20:58:45;102885.16;;;10.52;100.00
62420;BME280;48460;51.616;5.426;2022-10-18T21:01:20;102874.09;;;10.35;100.00
62420;BME280;48460;51.616;5.426;2022-10-18T21:03:47;102875.13;;;10.27;100.00
62420;BME280;48460;51.616;5.426;2022-10-18T21:06:18;102871.66;;;10.22;100.00
62420;BME280;48460;51.616;5.426;2022-10-18T21:08:54;102877.81;;;10.21;100.00
62420;BME280;48460;51.616;5.426;2022-10-18T21:11:21;102870.09;;;10.12;100.00
62420;BME280;48460;51.616;5.426;2022-10-18T21:13:54;102866.56;;;10.13;100.00
62420;BME280;48460;51.616;5.426;2022-10-18T21:16:40;102863.88;;;10.16;100.00
62420;BME280;48460;51.616;5.426;2022-10-18T21:19:20;102870.84;;;10.19;100.00
62420;BME280;48460;51.616;5.426;2022-10-18T21:21:52;102859.34;;;10.24;100.00
62420;BME280;48460;51.616;5.426;2022-10-18T21:24:21;102858.47;;;10.27;100.00
62420;BME280;48460;51.616;5.426;2022-10-18T21:26:50;102845.34;;;10.22;100.00